sensor_id;sensor_type;location;lat;lon;timestamp;temperature;humidity
13606;DHT22;6874;52.084;5.090;2022-12-18T00:01:05;-1.40;99.90
13606;DHT22;6874;52.084;5.090;2022-12-18T00:03:35;-1.40;99.90
13606;DHT22;6874;52.084;5.090;2022-12-18T00:06:01;-1.40;99.90
13606;DHT22;6874;52.084;5.090;2022-12-18T00:08:27;-1.40;99.90
13606;DHT22;6874;52.084;5.090;2022-12-18T00:10:53;-1.40;99.90
13606;DHT22;6874;52.084;5.090;2022-12-18T00:13:19;-1.40;99.90
13606;DHT22;6874;52.084;5.090;2022-12-18T00:15:45;-1.40;99.90
13606;DHT22;6874;52.084;5.090;2022-12-18T00:18:10;-1.40;99.90
13606;DHT22;6874;52.084;5.090;2022-12-18T00:20:38;-1.50;99.90
13606;DHT22;6874;52.084;5.090;2022-12-18T00:23:04;-1.50;99.90
13606;DHT22;6874;52.084;5.090;2022-12-18T00:25:32;-1.50;99.90
13606;DHT22;6874;52.084;5.090;2022-12-18T00:27:57;-1.50;99.90
13606;DHT22;6874;52.084;5.090;2022-12-18T00:30:24;-1.50;99.90
13606;DHT22;6874;52.084;5.090;2022-12-18T00:32:49;-1.50;99.90
13606;DHT22;6874;52.084;5.090;2022-12-18T00:35:15;-1.50;99.90
13606;DHT22;6874;52.084;5.090;2022-12-18T00:37:41;-1.50;99.90
13606;DHT22;6874;52.084;5.090;2022-12-18T00:40:07;-1.50;99.90
13606;DHT22;6874;52.084;5.090;2022-12-18T00:42:35;-1.50;99.90
13606;DHT22;6874;52.084;5.090;2022-12-18T00:45:19;-1.50;99.90
13606;DHT22;6874;52.084;5.090;2022-12-18T00:47:45;-1.50;99.90
13606;DHT22;6874;52.084;5.090;2022-12-18T00:50:11;-1.50;99.90
13606;DHT22;6874;52.084;5.090;2022-12-18T00:52:37;-1.60;99.90
13606;DHT22;6874;52.084;5.090;2022-12-18T00:55:05;-1.60;99.90
13606;DHT22;6874;52.084;5.090;2022-12-18T00:57:31;-1.60;99.90
13606;DHT22;6874;52.084;5.090;2022-12-18T00:59:56;-1.60;99.90
13606;DHT22;6874;52.084;5.090;2022-12-18T01:02:22;-1.60;99.90
13606;DHT22;6874;52.084;5.090;2022-12-18T01:04:48;-1.60;99.90
13606;DHT22;6874;52.084;5.090;2022-12-18T01:07:13;-1.60;99.90
13606;DHT22;6874;52.084;5.090;2022-12-18T01:09:39;-1.60;99.90
13606;DHT22;6874;52.084;5.090;2022-12-18T01:12:05;-1.60;99.90
13606;DHT22;6874;52.084;5.090;2022-12-18T01:14:31;-1.70;99.90
13606;DHT22;6874;52.084;5.090;2022-12-18T01:16:56;-1.60;99.90
13606;DHT22;6874;52.084;5.090;2022-12-18T01:19:22;-1.60;99.90
13606;DHT22;6874;52.084;5.090;2022-12-18T01:21:49;-1.70;99.90
13606;DHT22;6874;52.084;5.090;2022-12-18T01:24:14;-1.70;99.90
13606;DHT22;6874;52.084;5.090;2022-12-18T01:26:40;-1.70;99.90
13606;DHT22;6874;52.084;5.090;2022-12-18T01:29:05;-1.70;99.90
13606;DHT22;6874;52.084;5.090;2022-12-18T01:31:33;-1.70;99.90
13606;DHT22;6874;52.084;5.090;2022-12-18T01:34:01;-1.70;99.90
13606;DHT22;6874;52.084;5.090;2022-12-18T01:36:29;-1.70;99.90
13606;DHT22;6874;52.084;5.090;2022-12-18T01:38:55;-1.70;99.90
13606;DHT22;6874;52.084;5.090;2022-12-18T01:41:24;-1.70;99.90
13606;DHT22;6874;52.084;5.090;2022-12-18T01:43:57;-1.70;99.90
13606;DHT22;6874;52.084;5.090;2022-12-18T01:46:25;-1.70;99.90
13606;DHT22;6874;52.084;5.090;2022-12-18T01:48:55;-1.80;99.90
13606;DHT22;6874;52.084;5.090;2022-12-18T01:51:22;-1.80;99.90
13606;DHT22;6874;52.084;5.090;2022-12-18T01:53:48;-1.80;99.90
13606;DHT22;6874;52.084;5.090;2022-12-18T01:56:16;-1.80;99.90
13606;DHT22;6874;52.084;5.090;2022-12-18T01:59:01;-1.80;99.90
13606;DHT22;6874;52.084;5.090;2022-12-18T02:01:29;-1.80;99.90
13606;DHT22;6874;52.084;5.090;2022-12-18T02:03:56;-1.80;99.90
13606;DHT22;6874;52.084;5.090;2022-12-18T02:06:35;-1.80;99.90
13606;DHT22;6874;52.084;5.090;2022-12-18T02:09:19;-1.80;99.90
13606;DHT22;6874;52.084;5.090;2022-12-18T02:14:36;-1.80;99.90
13606;DHT22;6874;52.084;5.090;2022-12-18T02:17:18;-1.80;99.90
13606;DHT22;6874;52.084;5.090;2022-12-18T02:27:56;-1.90;99.90
13606;DHT22;6874;52.084;5.090;2022-12-18T02:30:26;-1.90;99.90
13606;DHT22;6874;52.084;5.090;2022-12-18T02:32:55;-1.90;99.90
13606;DHT22;6874;52.084;5.090;2022-12-18T02:35:23;-1.90;99.90
13606;DHT22;6874;52.084;5.090;2022-12-18T02:37:53;-1.90;99.90
13606;DHT22;6874;52.084;5.090;2022-12-18T02:40:22;-2.00;99.90
13606;DHT22;6874;52.084;5.090;2022-12-18T02:42:48;-2.00;99.90
13606;DHT22;6874;52.084;5.090;2022-12-18T02:45:14;-2.00;99.90
13606;DHT22;6874;52.084;5.090;2022-12-18T02:47:43;-2.00;99.90
13606;DHT22;6874;52.084;5.090;2022-12-18T02:56:05;-2.00;99.90
13606;DHT22;6874;52.084;5.090;2022-12-18T03:03:45;-2.10;99.90
13606;DHT22;6874;52.084;5.090;2022-12-18T03:06:21;-2.10;99.90
13606;DHT22;6874;52.084;5.090;2022-12-18T03:08:53;-2.10;99.90
13606;DHT22;6874;52.084;5.090;2022-12-18T03:11:23;-2.20;99.90
13606;DHT22;6874;52.084;5.090;2022-12-18T03:14:10;-2.20;99.90
13606;DHT22;6874;52.084;5.090;2022-12-18T03:16:39;-2.20;99.90
13606;DHT22;6874;52.084;5.090;2022-12-18T03:19:15;-2.20;99.90
13606;DHT22;6874;52.084;5.090;2022-12-18T03:21:51;-2.20;99.90
13606;DHT22;6874;52.084;5.090;2022-12-18T03:24:18;-2.30;99.90
13606;DHT22;6874;52.084;5.090;2022-12-18T03:26:50;-2.30;99.90
13606;DHT22;6874;52.084;5.090;2022-12-18T03:32:04;-2.30;99.90
13606;DHT22;6874;52.084;5.090;2022-12-18T03:34:33;-2.30;99.90
13606;DHT22;6874;52.084;5.090;2022-12-18T03:37:00;-2.40;99.90
13606;DHT22;6874;52.084;5.090;2022-12-18T03:39:26;-2.40;99.90
13606;DHT22;6874;52.084;5.090;2022-12-18T03:41:58;-2.40;99.90
13606;DHT22;6874;52.084;5.090;2022-12-18T03:44:37;-2.40;99.90
13606;DHT22;6874;52.084;5.090;2022-12-18T03:47:15;-2.50;99.90
13606;DHT22;6874;52.084;5.090;2022-12-18T03:49:56;-2.50;99.90
13606;DHT22;6874;52.084;5.090;2022-12-18T03:52:33;-2.50;99.90
13606;DHT22;6874;52.084;5.090;2022-12-18T03:55:02;-2.50;99.90
13606;DHT22;6874;52.084;5.090;2022-12-18T03:57:29;-2.50;99.90
13606;DHT22;6874;52.084;5.090;2022-12-18T04:00:07;-2.60;99.90
13606;DHT22;6874;52.084;5.090;2022-12-18T04:02:34;-2.60;99.90
13606;DHT22;6874;52.084;5.090;2022-12-18T04:05:05;-2.60;99.90
13606;DHT22;6874;52.084;5.090;2022-12-18T04:07:31;-2.60;99.90
13606;DHT22;6874;52.084;5.090;2022-12-18T04:09:59;-2.60;99.90
13606;DHT22;6874;52.084;5.090;2022-12-18T04:12:25;-2.70;99.90
13606;DHT22;6874;52.084;5.090;2022-12-18T04:14:51;-2.70;99.90
13606;DHT22;6874;52.084;5.090;2022-12-18T04:17:17;-2.70;99.90
13606;DHT22;6874;52.084;5.090;2022-12-18T04:19:43;-2.70;99.90
13606;DHT22;6874;52.084;5.090;2022-12-18T04:22:10;-2.70;99.90
13606;DHT22;6874;52.084;5.090;2022-12-18T04:24:35;-2.70;99.90
13606;DHT22;6874;52.084;5.090;2022-12-18T04:27:01;-2.80;99.90
13606;DHT22;6874;52.084;5.090;2022-12-18T04:29:27;-2.80;99.90
13606;DHT22;6874;52.084;5.090;2022-12-18T04:31:52;-2.80;99.90
13606;DHT22;6874;52.084;5.090;2022-12-18T04:34:18;-2.80;99.90
13606;DHT22;6874;52.084;5.090;2022-12-18T04:36:43;-2.80;99.90
13606;DHT22;6874;52.084;5.090;2022-12-18T04:39:09;-2.90;99.90
13606;DHT22;6874;52.084;5.090;2022-12-18T04:41:34;-2.90;99.90
13606;DHT22;6874;52.084;5.090;2022-12-18T04:44:00;-2.90;99.90
13606;DHT22;6874;52.084;5.090;2022-12-18T04:46:25;-2.90;99.90
13606;DHT22;6874;52.084;5.090;2022-12-18T04:48:51;-2.90;99.90
13606;DHT22;6874;52.084;5.090;2022-12-18T04:51:17;-3.00;99.90
13606;DHT22;6874;52.084;5.090;2022-12-18T04:53:42;-3.00;99.90
13606;DHT22;6874;52.084;5.090;2022-12-18T04:56:15;-3.00;99.90
13606;DHT22;6874;52.084;5.090;2022-12-18T04:58:43;-3.00;99.90
13606;DHT22;6874;52.084;5.090;2022-12-18T05:01:09;-3.00;99.90
13606;DHT22;6874;52.084;5.090;2022-12-18T05:03:36;-3.00;99.90
13606;DHT22;6874;52.084;5.090;2022-12-18T05:06:03;-3.10;99.90
13606;DHT22;6874;52.084;5.090;2022-12-18T05:08:30;-3.10;99.90
13606;DHT22;6874;52.084;5.090;2022-12-18T05:11:06;-3.10;99.90
13606;DHT22;6874;52.084;5.090;2022-12-18T05:13:33;-3.10;99.90
13606;DHT22;6874;52.084;5.090;2022-12-18T05:15:59;-3.10;99.90
13606;DHT22;6874;52.084;5.090;2022-12-18T05:18:25;-3.10;99.90
13606;DHT22;6874;52.084;5.090;2022-12-18T05:20:51;-3.20;99.90
13606;DHT22;6874;52.084;5.090;2022-12-18T05:23:17;-3.20;99.90
13606;DHT22;6874;52.084;5.090;2022-12-18T05:25:50;-3.20;99.90
13606;DHT22;6874;52.084;5.090;2022-12-18T05:28:16;-3.20;99.90
13606;DHT22;6874;52.084;5.090;2022-12-18T05:30:41;-3.20;99.90
13606;DHT22;6874;52.084;5.090;2022-12-18T05:33:08;-3.30;99.90
13606;DHT22;6874;52.084;5.090;2022-12-18T05:35:33;-3.30;99.90
13606;DHT22;6874;52.084;5.090;2022-12-18T05:37:59;-3.30;99.90
13606;DHT22;6874;52.084;5.090;2022-12-18T05:40:25;-3.30;99.90
13606;DHT22;6874;52.084;5.090;2022-12-18T05:42:50;-3.30;99.90
13606;DHT22;6874;52.084;5.090;2022-12-18T05:45:16;-3.30;99.90
13606;DHT22;6874;52.084;5.090;2022-12-18T05:47:41;-3.30;99.90
13606;DHT22;6874;52.084;5.090;2022-12-18T05:50:07;-3.30;99.90
13606;DHT22;6874;52.084;5.090;2022-12-18T05:52:33;-3.40;99.90
13606;DHT22;6874;52.084;5.090;2022-12-18T05:54:58;-3.40;99.90
13606;DHT22;6874;52.084;5.090;2022-12-18T05:57:24;-3.40;99.90
13606;DHT22;6874;52.084;5.090;2022-12-18T05:59:50;-3.40;99.90
13606;DHT22;6874;52.084;5.090;2022-12-18T06:02:15;-3.40;99.90
13606;DHT22;6874;52.084;5.090;2022-12-18T06:04:41;-3.50;99.90
13606;DHT22;6874;52.084;5.090;2022-12-18T06:07:06;-3.50;99.90
13606;DHT22;6874;52.084;5.090;2022-12-18T06:09:32;-3.50;99.90
13606;DHT22;6874;52.084;5.090;2022-12-18T06:11:58;-3.50;99.90
13606;DHT22;6874;52.084;5.090;2022-12-18T06:14:23;-3.50;99.90
13606;DHT22;6874;52.084;5.090;2022-12-18T06:16:50;-3.50;99.90
13606;DHT22;6874;52.084;5.090;2022-12-18T06:19:17;-3.50;99.90
13606;DHT22;6874;52.084;5.090;2022-12-18T06:21:43;-3.50;99.90
13606;DHT22;6874;52.084;5.090;2022-12-18T06:24:08;-3.60;99.90
13606;DHT22;6874;52.084;5.090;2022-12-18T06:26:34;-3.60;99.90
13606;DHT22;6874;52.084;5.090;2022-12-18T06:29:01;-3.60;99.90
13606;DHT22;6874;52.084;5.090;2022-12-18T06:31:27;-3.60;99.90
13606;DHT22;6874;52.084;5.090;2022-12-18T06:33:53;-3.60;99.90
13606;DHT22;6874;52.084;5.090;2022-12-18T06:36:18;-3.60;99.90
13606;DHT22;6874;52.084;5.090;2022-12-18T06:38:45;-3.60;99.90
13606;DHT22;6874;52.084;5.090;2022-12-18T06:41:12;-3.70;99.90
13606;DHT22;6874;52.084;5.090;2022-12-18T06:43:38;-3.70;99.90
13606;DHT22;6874;52.084;5.090;2022-12-18T06:46:05;-3.70;99.90
13606;DHT22;6874;52.084;5.090;2022-12-18T06:48:31;-3.70;99.90
13606;DHT22;6874;52.084;5.090;2022-12-18T06:50:57;-3.70;99.90
13606;DHT22;6874;52.084;5.090;2022-12-18T06:53:23;-3.70;99.90
13606;DHT22;6874;52.084;5.090;2022-12-18T06:55:49;-3.80;99.90
13606;DHT22;6874;52.084;5.090;2022-12-18T06:58:14;-3.80;99.90
13606;DHT22;6874;52.084;5.090;2022-12-18T07:00:40;-3.80;99.90
13606;DHT22;6874;52.084;5.090;2022-12-18T07:03:05;-3.80;99.90
13606;DHT22;6874;52.084;5.090;2022-12-18T07:05:31;-3.80;99.90
13606;DHT22;6874;52.084;5.090;2022-12-18T07:07:57;-3.80;99.90
13606;DHT22;6874;52.084;5.090;2022-12-18T07:10:23;-3.80;99.90
13606;DHT22;6874;52.084;5.090;2022-12-18T07:12:48;-3.80;99.90
13606;DHT22;6874;52.084;5.090;2022-12-18T07:15:14;-3.80;99.90
13606;DHT22;6874;52.084;5.090;2022-12-18T07:17:39;-3.80;99.90
13606;DHT22;6874;52.084;5.090;2022-12-18T07:20:05;-3.90;99.90
13606;DHT22;6874;52.084;5.090;2022-12-18T07:22:31;-3.90;99.90
13606;DHT22;6874;52.084;5.090;2022-12-18T07:24:57;-3.90;99.90
13606;DHT22;6874;52.084;5.090;2022-12-18T07:27:22;-3.90;99.90
13606;DHT22;6874;52.084;5.090;2022-12-18T07:29:48;-3.90;99.90
13606;DHT22;6874;52.084;5.090;2022-12-18T07:32:14;-3.90;99.90
13606;DHT22;6874;52.084;5.090;2022-12-18T07:34:39;-3.90;99.90
13606;DHT22;6874;52.084;5.090;2022-12-18T07:37:05;-3.90;99.90
13606;DHT22;6874;52.084;5.090;2022-12-18T07:39:31;-3.90;99.90
13606;DHT22;6874;52.084;5.090;2022-12-18T07:41:56;-3.90;99.90
13606;DHT22;6874;52.084;5.090;2022-12-18T07:44:40;-4.00;99.90
13606;DHT22;6874;52.084;5.090;2022-12-18T07:47:06;-4.00;99.90
13606;DHT22;6874;52.084;5.090;2022-12-18T07:49:31;-4.00;99.90
13606;DHT22;6874;52.084;5.090;2022-12-18T07:51:57;-4.00;99.90
13606;DHT22;6874;52.084;5.090;2022-12-18T07:54:23;-4.00;99.90
13606;DHT22;6874;52.084;5.090;2022-12-18T07:56:50;-4.00;99.90
13606;DHT22;6874;52.084;5.090;2022-12-18T07:59:15;-4.00;99.90
13606;DHT22;6874;52.084;5.090;2022-12-18T08:01:41;-4.00;99.90
13606;DHT22;6874;52.084;5.090;2022-12-18T08:04:06;-4.10;99.90
13606;DHT22;6874;52.084;5.090;2022-12-18T08:06:32;-4.10;99.90
13606;DHT22;6874;52.084;5.090;2022-12-18T08:08:57;-4.10;99.90
13606;DHT22;6874;52.084;5.090;2022-12-18T08:11:25;-4.10;99.90
13606;DHT22;6874;52.084;5.090;2022-12-18T08:13:51;-4.10;99.90
13606;DHT22;6874;52.084;5.090;2022-12-18T08:16:18;-4.10;99.90
13606;DHT22;6874;52.084;5.090;2022-12-18T08:18:43;-4.10;99.90
13606;DHT22;6874;52.084;5.090;2022-12-18T08:21:15;-4.10;99.90
13606;DHT22;6874;52.084;5.090;2022-12-18T08:23:41;-4.10;99.90
13606;DHT22;6874;52.084;5.090;2022-12-18T08:26:07;-4.10;99.90
13606;DHT22;6874;52.084;5.090;2022-12-18T08:28:33;-4.10;99.90
13606;DHT22;6874;52.084;5.090;2022-12-18T08:30:59;-4.10;99.90
13606;DHT22;6874;52.084;5.090;2022-12-18T08:33:25;-4.10;99.90
13606;DHT22;6874;52.084;5.090;2022-12-18T08:35:51;-4.10;99.90
13606;DHT22;6874;52.084;5.090;2022-12-18T08:38:17;-4.10;99.90
13606;DHT22;6874;52.084;5.090;2022-12-18T08:40:43;-4.10;99.90
13606;DHT22;6874;52.084;5.090;2022-12-18T08:43:10;-4.10;99.90
13606;DHT22;6874;52.084;5.090;2022-12-18T08:45:55;-4.10;99.90
13606;DHT22;6874;52.084;5.090;2022-12-18T08:48:21;-4.10;99.90
13606;DHT22;6874;52.084;5.090;2022-12-18T08:50:57;-4.10;99.90
13606;DHT22;6874;52.084;5.090;2022-12-18T08:53:23;-4.10;99.90
13606;DHT22;6874;52.084;5.090;2022-12-18T08:55:49;-4.10;99.90
13606;DHT22;6874;52.084;5.090;2022-12-18T08:58:15;-4.10;99.90
13606;DHT22;6874;52.084;5.090;2022-12-18T09:00:40;-4.10;99.90
13606;DHT22;6874;52.084;5.090;2022-12-18T09:03:14;-4.10;99.90
13606;DHT22;6874;52.084;5.090;2022-12-18T09:05:40;-4.10;99.90
13606;DHT22;6874;52.084;5.090;2022-12-18T09:08:06;-4.10;99.90
13606;DHT22;6874;52.084;5.090;2022-12-18T09:10:32;-4.10;99.90
13606;DHT22;6874;52.084;5.090;2022-12-18T09:12:58;-4.10;99.90
13606;DHT22;6874;52.084;5.090;2022-12-18T09:15:23;-4.10;99.90
13606;DHT22;6874;52.084;5.090;2022-12-18T09:17:49;-4.00;99.90
13606;DHT22;6874;52.084;5.090;2022-12-18T09:20:16;-4.00;99.90
13606;DHT22;6874;52.084;5.090;2022-12-18T09:22:42;-4.00;99.90
13606;DHT22;6874;52.084;5.090;2022-12-18T09:25:07;-4.00;99.90
13606;DHT22;6874;52.084;5.090;2022-12-18T09:27:34;-4.00;99.90
13606;DHT22;6874;52.084;5.090;2022-12-18T09:29:59;-4.00;99.90
13606;DHT22;6874;52.084;5.090;2022-12-18T09:32:25;-4.00;99.90
13606;DHT22;6874;52.084;5.090;2022-12-18T09:34:51;-4.00;99.90
13606;DHT22;6874;52.084;5.090;2022-12-18T09:37:16;-3.90;99.90
13606;DHT22;6874;52.084;5.090;2022-12-18T09:39:42;-3.90;99.90
13606;DHT22;6874;52.084;5.090;2022-12-18T09:42:17;-3.90;99.90
13606;DHT22;6874;52.084;5.090;2022-12-18T09:44:50;-3.90;99.90
13606;DHT22;6874;52.084;5.090;2022-12-18T09:49:53;-3.90;99.90
13606;DHT22;6874;52.084;5.090;2022-12-18T09:52:35;-3.80;99.90
13606;DHT22;6874;52.084;5.090;2022-12-18T09:55:14;-3.80;99.90
13606;DHT22;6874;52.084;5.090;2022-12-18T09:57:47;-3.80;99.90
13606;DHT22;6874;52.084;5.090;2022-12-18T10:00:23;-3.80;99.90
13606;DHT22;6874;52.084;5.090;2022-12-18T10:02:50;-3.80;99.90
13606;DHT22;6874;52.084;5.090;2022-12-18T10:05:27;-3.80;99.90
13606;DHT22;6874;52.084;5.090;2022-12-18T10:08:15;-3.70;99.90
13606;DHT22;6874;52.084;5.090;2022-12-18T10:10:52;-3.70;99.90
13606;DHT22;6874;52.084;5.090;2022-12-18T10:13:40;-3.70;99.90
13606;DHT22;6874;52.084;5.090;2022-12-18T10:16:16;-3.70;99.90
13606;DHT22;6874;52.084;5.090;2022-12-18T10:24:39;-3.60;99.90
13606;DHT22;6874;52.084;5.090;2022-12-18T10:27:26;-3.60;99.90
13606;DHT22;6874;52.084;5.090;2022-12-18T10:29:52;-3.50;99.90
13606;DHT22;6874;52.084;5.090;2022-12-18T10:32:23;-3.50;99.90
13606;DHT22;6874;52.084;5.090;2022-12-18T10:34:54;-3.50;99.90
13606;DHT22;6874;52.084;5.090;2022-12-18T10:37:26;-3.50;99.90
13606;DHT22;6874;52.084;5.090;2022-12-18T10:40:13;-3.40;99.90
13606;DHT22;6874;52.084;5.090;2022-12-18T10:42:39;-3.40;99.90
13606;DHT22;6874;52.084;5.090;2022-12-18T10:45:15;-3.40;99.90
13606;DHT22;6874;52.084;5.090;2022-12-18T10:47:49;-3.40;99.90
13606;DHT22;6874;52.084;5.090;2022-12-18T10:50:26;-3.40;99.90
13606;DHT22;6874;52.084;5.090;2022-12-18T10:52:55;-3.30;99.90
13606;DHT22;6874;52.084;5.090;2022-12-18T10:55:27;-3.30;99.90
13606;DHT22;6874;52.084;5.090;2022-12-18T10:58:23;-3.30;99.90
13606;DHT22;6874;52.084;5.090;2022-12-18T11:01:12;-3.20;99.90
13606;DHT22;6874;52.084;5.090;2022-12-18T11:06:17;-3.20;99.90
13606;DHT22;6874;52.084;5.090;2022-12-18T11:08:56;-3.10;99.90
13606;DHT22;6874;52.084;5.090;2022-12-18T11:11:23;-3.10;99.90
13606;DHT22;6874;52.084;5.090;2022-12-18T11:16:23;-3.10;99.90
13606;DHT22;6874;52.084;5.090;2022-12-18T11:18:49;-3.10;99.90
13606;DHT22;6874;52.084;5.090;2022-12-18T11:21:14;-3.00;99.90
13606;DHT22;6874;52.084;5.090;2022-12-18T11:23:50;-3.00;99.90
13606;DHT22;6874;52.084;5.090;2022-12-18T11:26:16;-2.90;99.90
13606;DHT22;6874;52.084;5.090;2022-12-18T11:29:06;-2.90;99.90
13606;DHT22;6874;52.084;5.090;2022-12-18T11:31:32;-2.90;99.90
13606;DHT22;6874;52.084;5.090;2022-12-18T11:36:37;-2.80;99.90
13606;DHT22;6874;52.084;5.090;2022-12-18T11:44:53;-2.70;99.90
13606;DHT22;6874;52.084;5.090;2022-12-18T11:50:17;-2.70;99.90
13606;DHT22;6874;52.084;5.090;2022-12-18T11:52:44;-2.60;99.90
13606;DHT22;6874;52.084;5.090;2022-12-18T11:55:14;-2.60;99.90
13606;DHT22;6874;52.084;5.090;2022-12-18T12:00:25;-2.60;99.90
13606;DHT22;6874;52.084;5.090;2022-12-18T12:05:55;-2.50;99.90
13606;DHT22;6874;52.084;5.090;2022-12-18T12:14:47;-2.50;99.90
13606;DHT22;6874;52.084;5.090;2022-12-18T12:17:38;-2.40;99.90
13606;DHT22;6874;52.084;5.090;2022-12-18T12:25:51;-2.40;99.90
13606;DHT22;6874;52.084;5.090;2022-12-18T12:31:24;-2.30;99.90
13606;DHT22;6874;52.084;5.090;2022-12-18T12:34:21;-2.30;99.90
13606;DHT22;6874;52.084;5.090;2022-12-18T12:39:24;-2.20;99.90
13606;DHT22;6874;52.084;5.090;2022-12-18T12:41:52;-2.20;99.90
13606;DHT22;6874;52.084;5.090;2022-12-18T12:44:48;-2.20;99.90
13606;DHT22;6874;52.084;5.090;2022-12-18T12:47:28;-2.10;99.90
13606;DHT22;6874;52.084;5.090;2022-12-18T12:49:56;-2.10;99.90
13606;DHT22;6874;52.084;5.090;2022-12-18T12:52:37;-2.10;99.90
13606;DHT22;6874;52.084;5.090;2022-12-18T12:55:07;-2.10;99.90
13606;DHT22;6874;52.084;5.090;2022-12-18T12:57:40;-2.10;99.90
13606;DHT22;6874;52.084;5.090;2022-12-18T13:05:31;-2.00;99.90
13606;DHT22;6874;52.084;5.090;2022-12-18T13:08:09;-2.00;99.90
13606;DHT22;6874;52.084;5.090;2022-12-18T13:10:40;-2.00;99.90
13606;DHT22;6874;52.084;5.090;2022-12-18T13:13:11;-1.90;99.90
13606;DHT22;6874;52.084;5.090;2022-12-18T13:16:03;-2.00;99.90
13606;DHT22;6874;52.084;5.090;2022-12-18T13:18:30;-1.90;99.90
13606;DHT22;6874;52.084;5.090;2022-12-18T13:26:39;-1.90;99.90
13606;DHT22;6874;52.084;5.090;2022-12-18T13:31:13;-1.80;99.90
13606;DHT22;6874;52.084;5.090;2022-12-18T13:33:46;-1.80;99.90
13606;DHT22;6874;52.084;5.090;2022-12-18T13:36:25;-1.80;99.90
13606;DHT22;6874;52.084;5.090;2022-12-18T13:41:42;-1.80;99.90
13606;DHT22;6874;52.084;5.090;2022-12-18T13:44:45;-1.80;99.90
13606;DHT22;6874;52.084;5.090;2022-12-18T13:47:30;-1.80;99.90
13606;DHT22;6874;52.084;5.090;2022-12-18T13:49:57;-1.80;99.90
13606;DHT22;6874;52.084;5.090;2022-12-18T13:52:33;-1.80;99.90
13606;DHT22;6874;52.084;5.090;2022-12-18T13:55:02;-1.70;99.90
13606;DHT22;6874;52.084;5.090;2022-12-18T13:57:35;-1.70;99.90
13606;DHT22;6874;52.084;5.090;2022-12-18T14:02:47;-1.70;99.90
13606;DHT22;6874;52.084;5.090;2022-12-18T14:05:34;-1.70;99.90
13606;DHT22;6874;52.084;5.090;2022-12-18T14:08:11;-1.70;99.90
13606;DHT22;6874;52.084;5.090;2022-12-18T14:10:42;-1.70;99.90
13606;DHT22;6874;52.084;5.090;2022-12-18T14:13:10;-1.70;99.90
13606;DHT22;6874;52.084;5.090;2022-12-18T14:15:43;-1.70;99.90
13606;DHT22;6874;52.084;5.090;2022-12-18T14:18:26;-1.70;99.90
13606;DHT22;6874;52.084;5.090;2022-12-18T14:20:57;-1.60;99.90
13606;DHT22;6874;52.084;5.090;2022-12-18T14:23:40;-1.60;99.90
13606;DHT22;6874;52.084;5.090;2022-12-18T14:26:26;-1.60;99.90
13606;DHT22;6874;52.084;5.090;2022-12-18T14:28:55;-1.60;99.90
13606;DHT22;6874;52.084;5.090;2022-12-18T14:31:23;-1.60;99.90
13606;DHT22;6874;52.084;5.090;2022-12-18T14:33:49;-1.60;99.90
13606;DHT22;6874;52.084;5.090;2022-12-18T14:36:18;-1.60;99.90
13606;DHT22;6874;52.084;5.090;2022-12-18T14:38:48;-1.60;99.90
13606;DHT22;6874;52.084;5.090;2022-12-18T14:41:16;-1.60;99.90
13606;DHT22;6874;52.084;5.090;2022-12-18T14:43:44;-1.50;99.90
13606;DHT22;6874;52.084;5.090;2022-12-18T14:46:38;-1.50;99.90
13606;DHT22;6874;52.084;5.090;2022-12-18T14:54:46;-1.50;99.90
13606;DHT22;6874;52.084;5.090;2022-12-18T14:57:23;-1.50;99.90
13606;DHT22;6874;52.084;5.090;2022-12-18T14:59:49;-1.50;99.90
13606;DHT22;6874;52.084;5.090;2022-12-18T15:04:42;-1.50;99.90
13606;DHT22;6874;52.084;5.090;2022-12-18T15:07:20;-1.50;99.90
13606;DHT22;6874;52.084;5.090;2022-12-18T15:12:43;-1.40;99.90
13606;DHT22;6874;52.084;5.090;2022-12-18T15:20:58;-1.40;99.90
13606;DHT22;6874;52.084;5.090;2022-12-18T15:23:37;-1.40;99.90
13606;DHT22;6874;52.084;5.090;2022-12-18T15:26:12;-1.40;99.90
13606;DHT22;6874;52.084;5.090;2022-12-18T15:28:52;-1.40;99.90
13606;DHT22;6874;52.084;5.090;2022-12-18T15:31:34;-1.40;99.90
13606;DHT22;6874;52.084;5.090;2022-12-18T15:34:32;-1.40;99.90
13606;DHT22;6874;52.084;5.090;2022-12-18T15:36:59;-1.40;99.90
13606;DHT22;6874;52.084;5.090;2022-12-18T15:39:25;-1.40;99.90
13606;DHT22;6874;52.084;5.090;2022-12-18T15:41:51;-1.40;99.90
13606;DHT22;6874;52.084;5.090;2022-12-18T15:44:35;-1.40;99.90
13606;DHT22;6874;52.084;5.090;2022-12-18T15:47:00;-1.40;99.90
13606;DHT22;6874;52.084;5.090;2022-12-18T15:49:26;-1.30;99.90
13606;DHT22;6874;52.084;5.090;2022-12-18T15:51:54;-1.30;99.90
13606;DHT22;6874;52.084;5.090;2022-12-18T15:54:20;-1.30;99.90
13606;DHT22;6874;52.084;5.090;2022-12-18T15:57:09;-1.30;99.90
13606;DHT22;6874;52.084;5.090;2022-12-18T15:59:53;-1.30;99.90
13606;DHT22;6874;52.084;5.090;2022-12-18T16:02:21;-1.30;99.90
13606;DHT22;6874;52.084;5.090;2022-12-18T16:04:48;-1.30;99.90
13606;DHT22;6874;52.084;5.090;2022-12-18T16:07:14;-1.30;99.90
13606;DHT22;6874;52.084;5.090;2022-12-18T16:09:39;-1.30;99.90
13606;DHT22;6874;52.084;5.090;2022-12-18T16:12:08;-1.30;99.90
13606;DHT22;6874;52.084;5.090;2022-12-18T16:14:39;-1.30;99.90
13606;DHT22;6874;52.084;5.090;2022-12-18T16:17:09;-1.30;99.90
13606;DHT22;6874;52.084;5.090;2022-12-18T16:19:37;-1.30;99.90
13606;DHT22;6874;52.084;5.090;2022-12-18T16:22:04;-1.30;99.90
13606;DHT22;6874;52.084;5.090;2022-12-18T16:24:32;-1.20;99.90
13606;DHT22;6874;52.084;5.090;2022-12-18T16:27:03;-1.30;99.90
13606;DHT22;6874;52.084;5.090;2022-12-18T16:29:29;-1.30;99.90
13606;DHT22;6874;52.084;5.090;2022-12-18T16:31:56;-1.20;99.90
13606;DHT22;6874;52.084;5.090;2022-12-18T16:36:50;-1.20;99.90
13606;DHT22;6874;52.084;5.090;2022-12-18T16:39:16;-1.20;99.90
13606;DHT22;6874;52.084;5.090;2022-12-18T16:41:42;-1.20;99.90
13606;DHT22;6874;52.084;5.090;2022-12-18T16:44:12;-1.20;99.90
13606;DHT22;6874;52.084;5.090;2022-12-18T16:46:38;-1.20;99.90
13606;DHT22;6874;52.084;5.090;2022-12-18T16:49:04;-1.20;99.90
13606;DHT22;6874;52.084;5.090;2022-12-18T16:51:30;-1.20;99.90
13606;DHT22;6874;52.084;5.090;2022-12-18T16:53:56;-1.20;99.90
13606;DHT22;6874;52.084;5.090;2022-12-18T16:56:22;-1.20;99.90
13606;DHT22;6874;52.084;5.090;2022-12-18T16:58:58;-1.20;99.90
13606;DHT22;6874;52.084;5.090;2022-12-18T17:01:25;-1.20;99.90
13606;DHT22;6874;52.084;5.090;2022-12-18T17:03:59;-1.20;99.90
13606;DHT22;6874;52.084;5.090;2022-12-18T17:06:28;-1.20;99.90
13606;DHT22;6874;52.084;5.090;2022-12-18T17:09:06;-1.10;99.90
13606;DHT22;6874;52.084;5.090;2022-12-18T17:11:33;-1.10;99.90
13606;DHT22;6874;52.084;5.090;2022-12-18T17:13:59;-1.10;99.90
13606;DHT22;6874;52.084;5.090;2022-12-18T17:16:25;-1.10;99.90
13606;DHT22;6874;52.084;5.090;2022-12-18T17:18:54;-1.10;99.90
13606;DHT22;6874;52.084;5.090;2022-12-18T17:21:20;-1.10;99.90
13606;DHT22;6874;52.084;5.090;2022-12-18T17:23:46;-1.10;99.90
13606;DHT22;6874;52.084;5.090;2022-12-18T17:26:12;-1.10;99.90
13606;DHT22;6874;52.084;5.090;2022-12-18T17:28:40;-1.10;99.90
13606;DHT22;6874;52.084;5.090;2022-12-18T17:31:22;-1.10;99.90
13606;DHT22;6874;52.084;5.090;2022-12-18T17:33:48;-1.00;99.90
13606;DHT22;6874;52.084;5.090;2022-12-18T17:36:15;-1.00;99.90
13606;DHT22;6874;52.084;5.090;2022-12-18T17:38:41;-1.10;99.90
13606;DHT22;6874;52.084;5.090;2022-12-18T17:41:08;-1.00;99.90
13606;DHT22;6874;52.084;5.090;2022-12-18T17:43:35;-1.00;99.90
13606;DHT22;6874;52.084;5.090;2022-12-18T17:46:05;-1.00;99.90
13606;DHT22;6874;52.084;5.090;2022-12-18T17:48:31;-1.00;99.90
13606;DHT22;6874;52.084;5.090;2022-12-18T17:51:02;-1.00;99.90